Time;durP1;ratioP1;P1;durP2;ratioP2;P2;SDS_P1;SDS_P2;PMS_P1;PMS_P2;Temp;Humidity;BMP_temperature;BMP_pressure;BME280_temperature;BME280_humidity;BME280_pressure;Samples;Min_cycle;Max_cycle;Signal;HPM_P1;HPM_P2
2021/12/29 00:00:02;;;;;;;;;;;;;;;;;;1982253;28;19907;-76
2021/12/29 00:01:01;;;;;;;;;;;;;;;;;;1982150;28;19906;-77
2021/12/29 00:02:00;;;;;;;;;;;;;;;;;;1982386;29;20323;-77
2021/12/29 00:03:00;;;;;;;;;;;15.10;95.00;;;;;;1982315;28;19938;-77
2021/12/29 00:03:59;;;;;;;;;;;;;;;;;;1982612;29;19906;-77
2021/12/29 00:04:58;;;;;;;;;;;;;;;;;;1982180;28;19907;-78
2021/12/29 00:05:57;;;;;;;;;;;;;;;;;;1982465;29;20010;-78
2021/12/29 00:06:56;;;;;;;;;;;;;;;;;;1982918;29;20287;-76
2021/12/29 00:07:55;;;;;;;;;;;;;;;;;;1982467;28;19914;-76
2021/12/29 00:08:55;;;;;;;;;;;;;;;;;;1982550;28;19918;-77
2021/12/29 00:09:55;;;;;;;;;;;;;;;;;;1982710;29;20366;-77
2021/12/29 00:10:56;;;;;;;;;;;;;;;;;;1983135;28;20008;-77
2021/12/29 00:11:54;;;;;;;;;;;14.70;92.50;;;;;;1983058;28;19934;-77
2021/12/29 00:12:55;;;;;;;;;;;;;;;;;;1984157;28;19910;-75
2021/12/29 00:13:54;;;;;;;;;;;;;;;;;;1989107;28;19933;-78
2021/12/29 00:14:53;;;;;;;;;;;;;;;;;;1988562;28;19894;-77
2021/12/29 00:15:57;;;;;;;;;;;;;;;;;;1986368;28;19907;-76
2021/12/29 00:16:58;;;;;;;;;;;;;;;;;;1991346;28;19915;-75
2021/12/29 00:17:57;;;;;;;;;;;14.70;95.10;;;;;;1991568;28;19921;-75
2021/12/29 00:18:55;;;;;;;;;;;14.80;90.70;;;;;;1991926;28;19910;-75
2021/12/29 00:19:54;;;;;;;;;;;14.80;91.80;;;;;;1990986;28;19925;-76
2021/12/29 00:20:53;;;;;;;;;;;14.80;92.70;;;;;;1989146;29;19945;-75
2021/12/29 00:21:52;;;;;;;;;;;14.80;92.50;;;;;;1989234;29;19906;-76
2021/12/29 00:22:50;;;;;;;;;;;14.80;92.70;;;;;;1989415;29;19910;-75
2021/12/29 00:23:49;;;;;;;;;;;14.80;93.10;;;;;;1988529;29;19938;-76
2021/12/29 00:24:47;;;;;;;;;;;14.80;93.10;;;;;;1982946;28;20271;-75
2021/12/29 00:25:46;;;;;;;;;;;14.80;92.90;;;;;;1982792;28;19906;-77
2021/12/29 00:26:44;;;;;;;;;;;;;;;;;;1982745;28;19945;-77
2021/12/29 00:27:43;;;;;;;;;;;;;;;;;;1982740;28;19937;-78
2021/12/29 00:28:42;;;;;;;;;;;;;;;;;;1982068;28;19913;-77
2021/12/29 00:29:41;;;;;;;;;;;;;;;;;;1982175;29;19906;-77
2021/12/29 00:30:40;;;;;;;;;;;;;;;;;;1982810;29;20347;-76
2021/12/29 00:31:39;;;;;;;;;;;;;;;;;;1982967;28;19966;-77
2021/12/29 00:32:37;;;;;;;;;;;14.60;95.60;;;;;;1982711;28;19960;-76
2021/12/29 00:33:36;;;;;;;;;;;;;;;;;;1981919;29;20020;-76
2021/12/29 00:34:35;;;;;;;;;;;;;;;;;;1982137;29;19934;-76
2021/12/29 00:35:35;;;;;;;;;;;;;;;;;;1982627;29;19918;-78
2021/12/29 00:36:33;;;;;;;;;;;14.70;91.30;;;;;;1982714;28;19910;-77
2021/12/29 00:37:31;;;;;;;;;;;14.80;91.10;;;;;;1982092;28;19907;-77
2021/12/29 00:38:30;;;;;;;;;;;14.80;90.90;;;;;;1982442;28;19906;-77
2021/12/29 00:39:28;;;;;;;;;;;14.80;90.90;;;;;;1982926;28;19989;-77
2021/12/29 00:40:27;;;;;;;;;;;14.90;91.10;;;;;;1982801;28;19910;-76
2021/12/29 00:41:25;;;;;;;;;;;14.80;91.00;;;;;;1982887;28;19906;-77
2021/12/29 00:42:24;;;;;;;;;;;15.00;90.80;;;;;;1982939;28;19957;-77
2021/12/29 00:43:22;;;;;;;;;;;14.80;90.70;;;;;;1982875;28;19968;-78
2021/12/29 00:44:21;;;;;;;;;;;14.90;90.70;;;;;;1982643;28;19906;-78
2021/12/29 00:45:20;;;;;;;;;;;14.90;90.70;;;;;;1982971;28;20219;-78
2021/12/29 00:46:18;;;;;;;;;;;14.90;90.90;;;;;;1982147;29;20409;-79
2021/12/29 00:47:17;;;;;;;;;;;14.90;90.90;;;;;;1981945;29;20441;-77
2021/12/29 00:48:17;;;;;;;;;;;14.80;91.20;;;;;;1982827;29;19906;-77
2021/12/29 00:49:16;;;;;;;;;;;14.80;90.90;;;;;;1982974;28;19917;-78
2021/12/29 00:50:15;;;;;;;;;;;14.80;91.00;;;;;;1983096;28;19948;-75
2021/12/29 00:51:14;;;;;;;;;;;14.80;91.30;;;;;;1982295;28;20076;-77
2021/12/29 00:52:13;;;;;;;;;;;14.90;91.50;;;;;;1982429;29;20564;-77
2021/12/29 00:53:11;;;;;;;;;;;14.80;91.70;;;;;;1982524;28;19910;-76
2021/12/29 00:54:10;;;;;;;;;;;14.80;92.10;;;;;;1982735;28;19907;-76
2021/12/29 00:55:09;;;;;;;;;;;14.80;92.30;;;;;;1983583;28;19982;-76
2021/12/29 00:56:07;;;;;;;;;;;14.90;92.70;;;;;;1983335;28;19906;-75
2021/12/29 00:57:06;;;;;;;;;;;14.80;92.90;;;;;;1983647;28;19930;-76
2021/12/29 00:58:07;;;;;;;;;;;;;;;;;;1983260;28;19913;-76
2021/12/29 00:59:05;;;;;;;;;;;;;;;;;;1982914;28;19906;-76
2021/12/29 01:00:04;;;;;;;;;;;;;;;;;;1982878;29;19906;-76
2021/12/29 01:01:03;;;;;;;;;;;;;;;;;;1982645;28;20330;-76
2021/12/29 01:02:02;;;;;;;;;;;;;;;;;;1983090;28;20005;-76
2021/12/29 01:03:00;;;;;;;;;;;14.70;93.10;;;;;;1976373;28;19910;-76
2021/12/29 01:04:00;;;;;;;;;;;;;;;;;;1984927;29;19906;-76
2021/12/29 01:04:59;;;;;;;;;;;;;;;;;;1985156;29;19907;-76
2021/12/29 01:05:58;;;;;;;;;;;;;;;;;;1985221;28;19906;-76
2021/12/29 01:06:57;;;;;;;;;;;;;;;;;;1985596;28;19961;-75
2021/12/29 01:07:55;;;;;;;;;;;;;;;;;;1985003;28;19907;-75
2021/12/29 01:08:54;;;;;;;;;;;;;;;;;;1985427;28;19945;-76
2021/12/29 01:09:53;;;;;;;;;;;;;;;;;;1985335;28;19948;-76
2021/12/29 01:10:52;;;;;;;;;;;14.80;93.00;;;;;;1984205;28;20370;-76
2021/12/29 01:11:55;;;;;;;;;;;;;;;;;;1983231;28;19989;-76
2021/12/29 01:12:57;;;;;;;;;;;14.70;93.40;;;;;;1982317;28;19997;-76
2021/12/29 01:13:56;;;;;;;;;;;;;;;;;;1981796;28;19913;-76
2021/12/29 01:14:57;;;;;;;;;;;;;;;;;;1981812;29;19965;-76
2021/12/29 01:17:09;;;;;;;;;;;;;;;;;;1981904;29;19938;-76
2021/12/29 01:18:07;;;;;;;;;;;14.50;93.20;;;;;;1982496;28;19907;-76
2021/12/29 01:19:06;;;;;;;;;;;;;;;;;;1982641;28;19907;-76
2021/12/29 01:20:05;;;;;;;;;;;;;;;;;;1982532;28;19946;-76
2021/12/29 01:21:04;;;;;;;;;;;14.90;91.60;;;;;;1982568;28;20405;-76
2021/12/29 01:22:03;;;;;;;;;;;14.90;88.90;;;;;;1982593;28;19911;-77
2021/12/29 01:23:01;;;;;;;;;;;14.90;88.30;;;;;;1982364;28;19953;-77
2021/12/29 01:24:01;;;;;;;;;;;14.90;88.50;;;;;;1981564;28;19906;-77
2021/12/29 01:24:59;;;;;;;;;;;14.90;89.30;;;;;;1981851;29;19906;-76
2021/12/29 01:25:57;;;;;;;;;;;14.90;90.00;;;;;;1982317;29;20050;-76
2021/12/29 01:26:56;;;;;;;;;;;14.90;90.50;;;;;;1982455;28;19907;-75
2021/12/29 01:27:55;;;;;;;;;;;14.90;91.70;;;;;;1981950;28;19911;-74
2021/12/29 01:28:54;;;;;;;;;;;;;;;;;;1982218;28;19906;-75
2021/12/29 01:29:53;;;;;;;;;;;;;;;;;;1982296;28;19908;-75
2021/12/29 01:30:51;;;;;;;;;;;;;;;;;;1981123;28;19953;-75
2021/12/29 01:31:50;;;;;;;;;;;;;;;;;;1981833;29;19958;-75
2021/12/29 01:32:50;;;;;;;;;;;;;;;;;;1981706;28;20022;-75
2021/12/29 01:33:49;;;;;;;;;;;;;;;;;;1982126;29;20211;-75
2021/12/29 01:34:48;;;;;;;;;;;14.80;92.60;;;;;;1987569;29;19906;-75
2021/12/29 01:35:46;;;;;;;;;;;;;;;;;;1987836;28;19942;-76
2021/12/29 01:36:45;;;;;;;;;;;14.90;92.20;;;;;;1988519;29;19914;-75
2021/12/29 01:37:45;;;;;;;;;;;;;;;;;;1984588;29;19906;-76
2021/12/29 01:38:44;;;;;;;;;;;;;;;;;;1982290;28;19911;-76
2021/12/29 01:39:43;;;;;;;;;;;;;;;;;;1982280;28;19957;-76
2021/12/29 01:40:41;;;;;;;;;;;;;;;;;;1982194;28;19906;-76
2021/12/29 01:41:46;;;;;;;;;;;14.90;92.90;;;;;;1982220;28;20078;-76
2021/12/29 01:42:44;;;;;;;;;;;15.00;92.50;;;;;;1982305;28;19906;-76
2021/12/29 01:43:43;;;;;;;;;;;;;;;;;;1981753;28;19997;-76
2021/12/29 01:44:42;;;;;;;;;;;;;;;;;;1981745;28;19914;-76
2021/12/29 01:45:41;;;;;;;;;;;;;;;;;;1982567;29;19946;-76
2021/12/29 01:46:40;;;;;;;;;;;;;;;;;;1986171;28;19952;-75
2021/12/29 01:47:39;;;;;;;;;;;;;;;;;;1989622;28;20394;-76
2021/12/29 01:48:38;;;;;;;;;;;;;;;;;;1988959;28;19945;-75
2021/12/29 01:49:38;;;;;;;;;;;;;;;;;;1988911;29;19902;-75
2021/12/29 01:50:38;;;;;;;;;;;;;;;;;;1989045;28;19906;-75
2021/12/29 01:51:42;;;;;;;;;;;;;;;;;;1988834;28;19941;-75
2021/12/29 01:52:41;;;;;;;;;;;;;;;;;;1988603;29;19906;-75
2021/12/29 01:53:48;;;;;;;;;;;;;;;;;;1986058;28;19907;-76
2021/12/29 01:54:46;;;;;;;;;;;;;;;;;;1988825;28;20380;-75
2021/12/29 01:55:45;;;;;;;;;;;;;;;;;;1989391;29;19906;-75
2021/12/29 01:56:44;;;;;;;;;;;15.00;92.30;;;;;;1989870;29;19907;-76
2021/12/29 01:57:43;;;;;;;;;;;15.10;87.00;;;;;;1989608;28;19906;-76
2021/12/29 01:58:42;;;;;;;;;;;15.10;87.20;;;;;;1986811;28;19906;-76
2021/12/29 01:59:40;;;;;;;;;;;15.00;86.30;;;;;;1989642;28;19989;-75
2021/12/29 02:00:41;;;;;;;;;;;15.20;87.30;;;;;;1990208;28;19906;-75
2021/12/29 02:01:40;;;;;;;;;;;15.10;86.50;;;;;;1990115;28;19917;-76
2021/12/29 02:02:38;;;;;;;;;;;15.10;86.10;;;;;;1989952;28;19970;-76
2021/12/29 02:03:37;;;;;;;;;;;15.10;86.60;;;;;;1989608;28;19906;-75
2021/12/29 02:04:35;;;;;;;;;;;15.10;86.70;;;;;;1989492;28;20273;-75
2021/12/29 02:05:34;;;;;;;;;;;15.10;87.50;;;;;;1989229;28;19912;-75
2021/12/29 02:06:33;;;;;;;;;;;15.10;87.90;;;;;;1988606;29;20040;-75
2021/12/29 02:07:32;;;;;;;;;;;15.10;88.60;;;;;;1982689;29;19910;-75
2021/12/29 02:08:32;;;;;;;;;;;15.10;89.50;;;;;;1982689;28;19906;-76
2021/12/29 02:09:31;;;;;;;;;;;;;;;;;;1982040;29;20267;-76
2021/12/29 02:10:32;;;;;;;;;;;;;;;;;;1973960;29;19957;-75
2021/12/29 02:11:31;;;;;;;;;;;;;;;;;;1981370;29;19926;-76
2021/12/29 02:12:32;;;;;;;;;;;;;;;;;;1981270;28;19914;-75
2021/12/29 02:13:30;;;;;;;;;;;15.00;95.50;;;;;;1981446;29;20278;-74
2021/12/29 02:14:29;;;;;;;;;;;;;;;;;;1981981;29;19907;-74
2021/12/29 02:15:28;;;;;;;;;;;;;;;;;;1981324;28;20376;-76
2021/12/29 02:16:27;;;;;;;;;;;;;;;;;;1981165;29;20363;-77
2021/12/29 02:17:26;;;;;;;;;;;;;;;;;;1981718;29;19914;-77
2021/12/29 02:18:25;;;;;;;;;;;;;;;;;;1981418;28;19958;-76
2021/12/29 02:19:25;;;;;;;;;;;;;;;;;;1981107;28;19942;-76
2021/12/29 02:20:26;;;;;;;;;;;;;;;;;;1981453;28;19906;-76
2021/12/29 02:21:25;;;;;;;;;;;;;;;;;;1981152;28;19925;-76
2021/12/29 02:22:42;;;;;;;;;;;;;;;;;;1981501;29;19906;-76
2021/12/29 02:23:55;;;;;;;;;;;15.00;95.00;;;;;;1981210;28;19906;-75
2021/12/29 02:25:06;;;;;;;;;;;;;;;;;;1981384;28;20311;-75
2021/12/29 02:26:05;;;;;;;;;;;;;;;;;;1981383;29;19911;-76
2021/12/29 02:27:04;;;;;;;;;;;;;;;;;;1981028;28;19907;-75
2021/12/29 02:28:03;;;;;;;;;;;14.90;93.50;;;;;;1981268;29;19961;-76
2021/12/29 02:29:02;;;;;;;;;;;;;;;;;;1981632;29;20322;-76
2021/12/29 02:30:01;;;;;;;;;;;;;;;;;;1981846;28;19906;-76
2021/12/29 02:31:00;;;;;;;;;;;15.20;92.40;;;;;;1981764;28;19957;-76
2021/12/29 02:31:58;;;;;;;;;;;15.10;85.80;;;;;;1981734;28;20197;-77
2021/12/29 02:33:02;;;;;;;;;;;;;;;;;;1981880;28;20028;-75
2021/12/29 02:34:01;;;;;;;;;;;;;;;;;;1981877;28;19950;-76
2021/12/29 02:34:59;;;;;;;;;;;15.10;88.40;;;;;;1981935;28;19906;-75
2021/12/29 02:35:58;;;;;;;;;;;15.10;91.80;;;;;;1981735;28;19910;-75
2021/12/29 02:36:59;;;;;;;;;;;15.00;88.30;;;;;;1981363;28;19906;-76
2021/12/29 02:37:59;;;;;;;;;;;15.10;87.80;;;;;;1981358;29;19907;-76
2021/12/29 02:38:58;;;;;;;;;;;15.20;88.50;;;;;;1981243;28;20279;-76
2021/12/29 02:39:59;;;;;;;;;;;;;;;;;;1981376;29;19913;-76
2021/12/29 02:40:58;;;;;;;;;;;;;;;;;;1981647;29;19914;-76
2021/12/29 02:41:56;;;;;;;;;;;15.00;96.60;;;;;;1981803;28;20024;-76
2021/12/29 02:42:55;;;;;;;;;;;15.10;90.10;;;;;;1982143;28;20033;-76
2021/12/29 02:43:59;;;;;;;;;;;15.20;88.60;;;;;;1982882;28;19914;-76
2021/12/29 02:45:02;;;;;;;;;;;15.10;88.00;;;;;;1975335;28;19906;-76
2021/12/29 02:46:00;;;;;;;;;;;15.10;88.10;;;;;;1982712;29;19929;-76
2021/12/29 02:46:59;;;;;;;;;;;15.10;88.80;;;;;;1983159;28;20298;-75
2021/12/29 02:47:57;;;;;;;;;;;15.10;89.20;;;;;;1982683;28;19907;-76
2021/12/29 02:49:02;;;;;;;;;;;15.10;89.80;;;;;;1982858;29;19906;-76
2021/12/29 02:50:00;;;;;;;;;;;15.10;90.10;;;;;;1983385;29;19906;-76
2021/12/29 02:51:00;;;;;;;;;;;15.20;90.40;;;;;;1983427;28;19907;-75
2021/12/29 02:51:58;;;;;;;;;;;15.10;90.40;;;;;;1983345;28;20262;-76
2021/12/29 02:52:57;;;;;;;;;;;15.20;90.70;;;;;;1983407;28;19907;-76
2021/12/29 02:53:57;;;;;;;;;;;15.10;90.60;;;;;;1983200;28;20393;-75
2021/12/29 02:54:55;;;;;;;;;;;15.10;90.80;;;;;;1983402;28;19921;-75
2021/12/29 02:55:54;;;;;;;;;;;15.10;90.90;;;;;;1983514;28;19913;-75
2021/12/29 02:56:55;;;;;;;;;;;15.10;90.60;;;;;;1983033;28;20000;-76
2021/12/29 02:57:53;;;;;;;;;;;15.10;91.10;;;;;;1983322;28;19914;-75
2021/12/29 02:58:52;;;;;;;;;;;15.10;90.90;;;;;;1983471;28;19914;-75
2021/12/29 02:59:51;;;;;;;;;;;15.20;90.80;;;;;;1983464;28;20289;-75
2021/12/29 03:00:50;;;;;;;;;;;15.20;90.80;;;;;;1983336;28;20000;-75
2021/12/29 03:01:49;;;;;;;;;;;15.10;90.70;;;;;;1983408;28;19906;-75
2021/12/29 03:02:47;;;;;;;;;;;15.10;91.00;;;;;;1983379;28;19913;-76
2021/12/29 03:03:46;;;;;;;;;;;15.10;90.70;;;;;;1983463;28;20374;-76
2021/12/29 03:04:44;;;;;;;;;;;15.10;90.50;;;;;;1983233;28;20384;-76
2021/12/29 03:05:43;;;;;;;;;;;15.10;90.50;;;;;;1983501;28;19906;-75
2021/12/29 03:06:41;;;;;;;;;;;15.10;90.80;;;;;;1983435;29;19953;-75
2021/12/29 03:07:40;;;;;;;;;;;15.10;90.90;;;;;;1983479;28;20330;-76
2021/12/29 03:08:38;;;;;;;;;;;15.10;90.80;;;;;;1983373;28;19913;-76
2021/12/29 03:09:37;;;;;;;;;;;15.20;90.70;;;;;;1983523;28;19961;-76
2021/12/29 03:10:35;;;;;;;;;;;15.10;90.70;;;;;;1983596;28;19907;-76
2021/12/29 03:11:34;;;;;;;;;;;15.00;90.80;;;;;;1983699;28;19946;-76
2021/12/29 03:12:34;;;;;;;;;;;15.10;90.90;;;;;;1983539;28;19945;-75
2021/12/29 03:13:34;;;;;;;;;;;15.10;90.70;;;;;;1984039;28;19945;-76
2021/12/29 03:14:33;;;;;;;;;;;15.10;90.80;;;;;;1990242;28;19919;-75
2021/12/29 03:15:31;;;;;;;;;;;15.10;91.00;;;;;;1991738;28;19911;-74
2021/12/29 03:16:31;;;;;;;;;;;15.10;91.10;;;;;;1991686;28;19926;-74
2021/12/29 03:17:30;;;;;;;;;;;15.10;90.90;;;;;;1991897;28;19930;-74
2021/12/29 03:18:29;;;;;;;;;;;15.00;91.20;;;;;;1987189;29;19906;-76
2021/12/29 03:19:27;;;;;;;;;;;15.10;91.10;;;;;;1988182;28;19934;-76
2021/12/29 03:20:26;;;;;;;;;;;15.10;91.30;;;;;;1985065;28;20290;-76
2021/12/29 03:21:24;;;;;;;;;;;15.10;91.20;;;;;;1987916;29;19910;-76
2021/12/29 03:22:23;;;;;;;;;;;15.10;91.00;;;;;;1983782;29;19907;-76
2021/12/29 03:23:21;;;;;;;;;;;15.10;91.00;;;;;;1982583;28;20001;-76
2021/12/29 03:24:21;;;;;;;;;;;15.10;91.80;;;;;;1982604;29;19913;-76
2021/12/29 03:25:20;;;;;;;;;;;15.10;91.40;;;;;;1983108;29;19913;-77
2021/12/29 03:26:18;;;;;;;;;;;15.30;91.50;;;;;;1983012;28;20325;-76
2021/12/29 03:27:18;;;;;;;;;;;15.10;91.40;;;;;;1981974;28;20000;-76
2021/12/29 03:28:18;;;;;;;;;;;15.10;91.40;;;;;;1981525;28;19906;-75
2021/12/29 03:29:17;;;;;;;;;;;15.10;91.70;;;;;;1982446;29;19913;-75
2021/12/29 03:30:15;;;;;;;;;;;15.10;92.00;;;;;;1983081;29;19925;-76
2021/12/29 03:31:15;;;;;;;;;;;15.00;92.00;;;;;;1983030;28;20332;-76
2021/12/29 03:32:22;;;;;;;;;;;15.00;91.60;;;;;;1982372;28;19925;-77
2021/12/29 03:33:21;;;;;;;;;;;15.00;91.70;;;;;;1982411;29;19974;-77
2021/12/29 03:34:20;;;;;;;;;;;15.10;92.20;;;;;;1982368;28;19913;-76
2021/12/29 03:35:20;;;;;;;;;;;15.10;92.20;;;;;;1983187;29;19914;-77
2021/12/29 03:36:18;;;;;;;;;;;15.10;92.20;;;;;;1986061;28;19910;-75
2021/12/29 03:37:17;;;;;;;;;;;15.10;92.00;;;;;;1985758;29;19906;-75
2021/12/29 03:38:20;;;;;;;;;;;15.10;92.10;;;;;;1985186;29;19906;-75
2021/12/29 03:39:18;;;;;;;;;;;15.10;92.00;;;;;;1986175;28;19929;-75
2021/12/29 03:40:17;;;;;;;;;;;15.00;92.10;;;;;;1985849;28;19907;-75
2021/12/29 03:41:16;;;;;;;;;;;15.10;92.30;;;;;;1986141;28;19993;-76
2021/12/29 03:42:15;;;;;;;;;;;15.00;92.20;;;;;;1986375;28;19934;-76
2021/12/29 03:43:14;;;;;;;;;;;15.00;92.30;;;;;;1984484;28;19953;-76
2021/12/29 03:44:13;;;;;;;;;;;15.00;92.50;;;;;;1982963;28;19907;-76
2021/12/29 03:45:11;;;;;;;;;;;15.10;92.20;;;;;;1982129;28;19907;-76
2021/12/29 03:46:10;;;;;;;;;;;15.20;92.10;;;;;;1974491;28;20354;-75
2021/12/29 03:47:08;;;;;;;;;;;15.00;91.90;;;;;;1981715;29;19906;-76
2021/12/29 03:48:08;;;;;;;;;;;15.00;91.90;;;;;;1982823;29;19907;-76
2021/12/29 03:49:06;;;;;;;;;;;15.10;91.90;;;;;;1982907;28;19924;-76
2021/12/29 03:50:05;;;;;;;;;;;15.00;91.60;;;;;;1982832;28;19917;-75
2021/12/29 03:51:04;;;;;;;;;;;15.00;92.10;;;;;;1982886;28;20286;-75
2021/12/29 03:52:04;;;;;;;;;;;15.00;92.10;;;;;;1982756;28;19933;-76
2021/12/29 03:53:03;;;;;;;;;;;15.00;91.70;;;;;;1983072;28;19965;-76
2021/12/29 03:54:04;;;;;;;;;;;15.30;91.90;;;;;;1982384;28;19906;-75
2021/12/29 03:55:03;;;;;;;;;;;15.00;91.90;;;;;;1982074;28;19910;-76
2021/12/29 03:56:01;;;;;;;;;;;15.00;92.00;;;;;;1982314;29;20406;-76
2021/12/29 03:57:02;;;;;;;;;;;15.00;91.60;;;;;;1982688;29;19906;-76
2021/12/29 03:58:00;;;;;;;;;;;15.00;91.70;;;;;;1982261;28;19906;-76
2021/12/29 03:58:59;;;;;;;;;;;15.10;91.80;;;;;;1982180;29;19954;-76
2021/12/29 03:59:57;;;;;;;;;;;15.00;91.50;;;;;;1982724;29;20262;-76
2021/12/29 04:00:57;;;;;;;;;;;15.00;91.70;;;;;;1982718;28;19906;-75
2021/12/29 04:01:56;;;;;;;;;;;15.00;91.60;;;;;;1982675;28;20347;-75
2021/12/29 04:02:54;;;;;;;;;;;15.00;91.70;;;;;;1982539;28;19911;-75
2021/12/29 04:03:53;;;;;;;;;;;15.00;91.80;;;;;;1982778;28;19970;-76
2021/12/29 04:04:52;;;;;;;;;;;15.00;92.20;;;;;;1982967;28;19929;-75
2021/12/29 04:05:51;;;;;;;;;;;15.10;92.00;;;;;;1982711;28;19929;-75
2021/12/29 04:06:49;;;;;;;;;;;15.00;91.90;;;;;;1982644;28;20001;-75
2021/12/29 04:07:48;;;;;;;;;;;15.00;92.00;;;;;;1982802;28;20017;-75
2021/12/29 04:08:48;;;;;;;;;;;15.00;91.60;;;;;;1982782;28;19906;-75
2021/12/29 04:09:46;;;;;;;;;;;14.90;91.70;;;;;;1982810;28;20282;-75
2021/12/29 04:10:45;;;;;;;;;;;15.20;91.90;;;;;;1982657;28;19910;-75
2021/12/29 04:11:43;;;;;;;;;;;15.00;92.20;;;;;;1982792;28;19938;-76
2021/12/29 04:12:42;;;;;;;;;;;15.00;91.80;;;;;;1982689;28;20277;-76
2021/12/29 04:13:40;;;;;;;;;;;15.00;91.90;;;;;;1982770;28;19913;-76
2021/12/29 04:14:39;;;;;;;;;;;15.00;92.00;;;;;;1982714;28;20427;-76
2021/12/29 04:15:38;;;;;;;;;;;15.00;91.90;;;;;;1982626;28;19906;-75
2021/12/29 04:16:40;;;;;;;;;;;15.00;92.20;;;;;;1982835;28;19906;-75
2021/12/29 04:17:39;;;;;;;;;;;15.00;92.20;;;;;;1982604;28;19966;-76
2021/12/29 04:18:45;;;;;;;;;;;15.00;92.60;;;;;;1982115;28;19907;-76
2021/12/29 04:21:02;;;;;;;;;;;15.10;92.50;;;;;;1982844;29;20271;-76
2021/12/29 04:22:01;;;;;;;;;;;15.00;92.50;;;;;;1982021;28;20319;-75
2021/12/29 04:23:00;;;;;;;;;;;15.10;92.20;;;;;;1982270;28;19907;-76
2021/12/29 04:23:58;;;;;;;;;;;15.00;92.30;;;;;;1982633;28;19906;-75
2021/12/29 04:24:57;;;;;;;;;;;15.00;93.00;;;;;;1982524;28;19930;-75
2021/12/29 04:25:56;;;;;;;;;;;14.90;92.90;;;;;;1982667;28;19976;-76
2021/12/29 04:26:55;;;;;;;;;;;15.00;92.30;;;;;;1982097;28;20017;-75
2021/12/29 04:27:54;;;;;;;;;;;15.00;92.90;;;;;;1981811;28;19966;-75
2021/12/29 04:28:53;;;;;;;;;;;15.00;93.10;;;;;;1982058;28;20271;-75
2021/12/29 04:29:51;;;;;;;;;;;15.00;92.70;;;;;;1982546;28;19907;-77
2021/12/29 04:30:51;;;;;;;;;;;15.00;92.70;;;;;;1982637;28;19964;-76
2021/12/29 04:31:49;;;;;;;;;;;15.00;92.70;;;;;;1982463;28;19906;-75
2021/12/29 04:32:48;;;;;;;;;;;14.90;92.80;;;;;;1982754;28;19965;-76
2021/12/29 04:33:49;;;;;;;;;;;15.20;92.90;;;;;;1982660;28;19989;-76
2021/12/29 04:34:48;;;;;;;;;;;14.90;92.50;;;;;;1982015;28;19956;-76
2021/12/29 04:35:47;;;;;;;;;;;14.90;92.70;;;;;;1982017;29;19926;-77
2021/12/29 04:36:46;;;;;;;;;;;14.90;93.00;;;;;;1982407;29;19907;-76
2021/12/29 04:37:44;;;;;;;;;;;15.00;92.80;;;;;;1982781;28;19918;-76
2021/12/29 04:38:42;;;;;;;;;;;14.90;92.70;;;;;;1982265;28;19914;-76
2021/12/29 04:39:41;;;;;;;;;;;15.00;92.80;;;;;;1982524;28;19917;-76
2021/12/29 04:40:39;;;;;;;;;;;14.90;92.40;;;;;;1982497;28;20009;-76
2021/12/29 04:41:38;;;;;;;;;;;14.90;92.60;;;;;;1982569;28;20005;-76
2021/12/29 04:42:37;;;;;;;;;;;14.90;93.30;;;;;;1982659;28;19906;-76
2021/12/29 04:43:35;;;;;;;;;;;14.90;92.70;;;;;;1982357;28;20020;-77
2021/12/29 04:44:33;;;;;;;;;;;14.90;92.90;;;;;;1981737;28;20409;-75
2021/12/29 04:45:32;;;;;;;;;;;14.90;92.70;;;;;;1981866;29;19907;-76
2021/12/29 04:46:39;;;;;;;;;;;14.90;92.60;;;;;;1982410;29;19907;-76
2021/12/29 04:47:42;;;;;;;;;;;14.90;92.80;;;;;;1982511;28;20322;-76
2021/12/29 04:48:47;;;;;;;;;;;14.80;93.10;;;;;;1982550;28;19911;-75
2021/12/29 04:49:45;;;;;;;;;;;14.90;92.60;;;;;;1982513;28;19974;-75
2021/12/29 04:51:03;;;;;;;;;;;15.10;92.60;;;;;;1982407;28;19907;-75
2021/12/29 04:52:04;;;;;;;;;;;14.80;92.50;;;;;;1981764;28;19910;-75
2021/12/29 04:53:03;;;;;;;;;;;14.90;92.50;;;;;;1981929;29;19916;-75
2021/12/29 04:54:04;;;;;;;;;;;14.90;92.60;;;;;;1982510;29;19906;-75
2021/12/29 04:55:02;;;;;;;;;;;14.90;92.90;;;;;;1982339;28;19913;-76
2021/12/29 04:56:00;;;;;;;;;;;14.90;92.90;;;;;;1982321;28;19907;-76
2021/12/29 04:57:00;;;;;;;;;;;14.90;92.80;;;;;;1982340;28;19912;-76
2021/12/29 04:57:59;;;;;;;;;;;14.90;92.60;;;;;;1982287;28;19969;-75
2021/12/29 04:58:59;;;;;;;;;;;14.90;92.20;;;;;;1982426;28;20334;-75
2021/12/29 04:59:57;;;;;;;;;;;14.90;92.20;;;;;;1982366;28;19906;-76
2021/12/29 05:00:55;;;;;;;;;;;14.90;92.00;;;;;;1982424;28;19906;-75
2021/12/29 05:01:54;;;;;;;;;;;14.90;92.00;;;;;;1981584;28;20016;-75
2021/12/29 05:02:53;;;;;;;;;;;14.90;92.10;;;;;;1981794;29;19907;-76
2021/12/29 05:03:53;;;;;;;;;;;14.90;92.20;;;;;;1982047;29;19906;-76
2021/12/29 05:05:01;;;;;;;;;;;14.90;92.20;;;;;;1982574;28;19914;-76
2021/12/29 05:08:25;;;;;;;;;;;14.90;92.00;;;;;;1982306;29;19910;-76
2021/12/29 05:09:23;;;;;;;;;;;14.90;92.20;;;;;;1982545;28;19906;-76
2021/12/29 05:10:22;;;;;;;;;;;14.90;92.10;;;;;;1982241;28;19990;-76
2021/12/29 05:11:20;;;;;;;;;;;14.90;92.00;;;;;;1982475;28;19985;-76
2021/12/29 05:12:18;;;;;;;;;;;14.90;91.70;;;;;;1982369;28;19949;-75
2021/12/29 05:13:17;;;;;;;;;;;14.90;92.10;;;;;;1981512;28;19907;-75
2021/12/29 05:14:16;;;;;;;;;;;14.90;92.50;;;;;;1981729;29;20304;-75
2021/12/29 05:15:14;;;;;;;;;;;15.00;92.40;;;;;;1982019;29;19926;-75
2021/12/29 05:16:13;;;;;;;;;;;14.90;92.70;;;;;;1981426;28;19906;-75
2021/12/29 05:17:11;;;;;;;;;;;14.90;92.40;;;;;;1981742;29;19907;-75
2021/12/29 05:18:10;;;;;;;;;;;14.90;92.20;;;;;;1982189;29;19913;-75
2021/12/29 05:19:08;;;;;;;;;;;14.90;92.20;;;;;;1982359;28;19907;-76
2021/12/29 05:20:07;;;;;;;;;;;15.10;92.10;;;;;;1982169;28;19906;-75
2021/12/29 05:21:07;;;;;;;;;;;14.90;92.20;;;;;;1982233;28;19957;-77
2021/12/29 05:22:06;;;;;;;;;;;14.90;92.00;;;;;;1981491;28;20030;-75
2021/12/29 05:23:04;;;;;;;;;;;14.90;92.10;;;;;;1981552;29;19911;-76
2021/12/29 05:24:03;;;;;;;;;;;14.90;91.90;;;;;;1982062;29;19941;-76
2021/12/29 05:25:01;;;;;;;;;;;14.90;91.90;;;;;;1982237;28;19970;-76
2021/12/29 05:25:59;;;;;;;;;;;14.80;92.10;;;;;;1982171;28;19953;-76
2021/12/29 05:26:58;;;;;;;;;;;14.90;92.30;;;;;;1981523;28;19906;-75
2021/12/29 05:27:57;;;;;;;;;;;14.90;92.10;;;;;;1981361;29;19961;-76
2021/12/29 05:28:55;;;;;;;;;;;14.80;92.10;;;;;;1982253;29;20009;-76
2021/12/29 05:29:54;;;;;;;;;;;14.80;92.20;;;;;;1982207;28;19998;-76
2021/12/29 05:30:53;;;;;;;;;;;14.90;92.30;;;;;;1982067;28;19907;-76
2021/12/29 05:31:52;;;;;;;;;;;14.80;92.10;;;;;;1981976;28;19907;-76
2021/12/29 05:32:50;;;;;;;;;;;14.80;91.90;;;;;;1982376;28;19946;-76
2021/12/29 05:33:49;;;;;;;;;;;14.90;92.00;;;;;;1982078;28;19907;-76
2021/12/29 05:34:47;;;;;;;;;;;14.90;91.80;;;;;;1982058;28;19977;-76
2021/12/29 05:35:46;;;;;;;;;;;14.80;92.10;;;;;;1982131;28;19961;-76
2021/12/29 05:36:44;;;;;;;;;;;14.80;92.00;;;;;;1981966;28;19914;-76
2021/12/29 05:37:42;;;;;;;;;;;14.90;92.20;;;;;;1981552;28;19913;-76
2021/12/29 05:38:41;;;;;;;;;;;14.90;92.10;;;;;;1981394;29;19976;-76
2021/12/29 05:39:39;;;;;;;;;;;14.90;92.30;;;;;;1981775;29;19914;-76
2021/12/29 05:40:38;;;;;;;;;;;14.80;92.10;;;;;;1981394;28;19914;-76
2021/12/29 05:41:36;;;;;;;;;;;14.80;92.40;;;;;;1981475;29;19906;-76
2021/12/29 05:42:35;;;;;;;;;;;14.80;92.70;;;;;;1982025;29;19911;-75
2021/12/29 05:43:34;;;;;;;;;;;14.80;92.50;;;;;;1981858;28;19929;-75
2021/12/29 05:44:32;;;;;;;;;;;14.80;92.60;;;;;;1982162;28;20216;-75
2021/12/29 05:45:31;;;;;;;;;;;14.80;92.50;;;;;;1981220;28;19906;-75
2021/12/29 05:46:29;;;;;;;;;;;14.80;92.50;;;;;;1973604;28;19906;-76
2021/12/29 05:47:28;;;;;;;;;;;14.80;92.20;;;;;;1980885;29;19933;-76
2021/12/29 05:48:26;;;;;;;;;;;14.80;92.00;;;;;;1981237;29;19906;-76
2021/12/29 05:49:24;;;;;;;;;;;14.80;92.10;;;;;;1981518;29;19911;-76
2021/12/29 05:50:25;;;;;;;;;;;14.80;92.00;;;;;;1981781;29;19914;-76
2021/12/29 05:51:23;;;;;;;;;;;14.70;92.40;;;;;;1981365;28;19914;-76
2021/12/29 05:52:22;;;;;;;;;;;14.70;92.40;;;;;;1973676;28;19914;-76
2021/12/29 05:53:20;;;;;;;;;;;14.70;92.10;;;;;;1980941;29;19913;-75
2021/12/29 05:54:18;;;;;;;;;;;14.70;92.10;;;;;;1982166;28;19957;-76
2021/12/29 05:55:17;;;;;;;;;;;14.70;92.50;;;;;;1981977;28;20046;-75
2021/12/29 05:56:15;;;;;;;;;;;14.70;92.20;;;;;;1981880;28;19906;-76
2021/12/29 05:57:14;;;;;;;;;;;14.80;92.20;;;;;;1982055;28;20024;-76
2021/12/29 05:58:12;;;;;;;;;;;14.70;92.10;;;;;;1981933;28;19913;-76
2021/12/29 05:59:11;;;;;;;;;;;14.80;92.10;;;;;;1982068;28;19913;-76
2021/12/29 06:00:11;;;;;;;;;;;14.80;92.10;;;;;;1981874;28;19907;-77
2021/12/29 06:01:10;;;;;;;;;;;14.70;92.00;;;;;;1981448;28;19914;-76
2021/12/29 06:02:08;;;;;;;;;;;14.70;92.10;;;;;;1973963;29;20373;-76